createdAt,value
2023-03-24T00:01:12.456Z,7.88
2023-03-24T00:03:40.427Z,7.85
2023-03-24T00:06:09.587Z,7.80
2023-03-24T00:08:38.096Z,7.76
2023-03-24T00:11:09.688Z,7.73
2023-03-24T00:13:38.547Z,7.72
2023-03-24T00:16:17.335Z,7.73
2023-03-24T00:18:50.654Z,7.75
2023-03-24T00:21:21.938Z,7.76
2023-03-24T00:23:51.202Z,7.74
2023-03-24T00:26:19.356Z,7.72
2023-03-24T00:28:53.056Z,7.68
2023-03-24T00:31:22.649Z,7.70
2023-03-24T00:33:54.153Z,7.71
2023-03-24T00:36:26.156Z,7.70
2023-03-24T00:38:56.507Z,7.70
2023-03-24T00:41:28.462Z,7.62
2023-03-24T00:44:00.795Z,7.57
2023-03-24T00:46:29.602Z,7.49
2023-03-24T00:49:06.250Z,7.49
2023-03-24T00:51:40.587Z,7.46
2023-03-24T00:54:12.868Z,7.48
2023-03-24T00:56:43.976Z,7.46
2023-03-24T00:59:14.307Z,7.51
2023-03-24T01:01:43.714Z,7.56
2023-03-24T01:04:12.290Z,7.55
2023-03-24T01:06:41.563Z,7.49
2023-03-24T01:09:10.929Z,7.48
2023-03-24T01:11:40.455Z,7.48
2023-03-24T01:14:09.942Z,7.49
2023-03-24T01:16:38.110Z,7.43
2023-03-24T01:19:07.080Z,7.41
2023-03-24T01:21:35.743Z,7.34
2023-03-24T01:24:05.522Z,7.36
2023-03-24T01:26:33.504Z,7.35
2023-03-24T01:29:01.491Z,7.34
2023-03-24T01:31:30.209Z,7.32
2023-03-24T01:33:58.265Z,7.32
2023-03-24T01:36:26.262Z,7.32
2023-03-24T01:38:54.112Z,7.30
2023-03-24T01:41:22.027Z,7.27
2023-03-24T01:43:49.912Z,7.26
2023-03-24T01:46:21.616Z,7.21
2023-03-24T01:49:11.586Z,7.15
2023-03-24T01:51:44.053Z,7.18
2023-03-24T01:54:14.916Z,7.16
2023-03-24T01:56:51.395Z,7.16
2023-03-24T01:59:22.482Z,7.12
2023-03-24T02:02:17.978Z,7.09
2023-03-24T02:04:54.490Z,7.02
2023-03-24T02:07:48.072Z,7.03
2023-03-24T02:10:18.453Z,7.02
2023-03-24T02:12:46.914Z,7.02
2023-03-24T02:15:17.925Z,7.02
2023-03-24T02:17:49.053Z,7.03
2023-03-24T02:20:19.828Z,6.99
2023-03-24T02:23:01.494Z,6.99
2023-03-24T02:25:51.808Z,6.99
2023-03-24T02:28:37.523Z,6.93
2023-03-24T02:31:24.651Z,6.95
2023-03-24T02:33:59.008Z,6.97
2023-03-24T02:36:33.649Z,6.93
2023-03-24T02:39:21.583Z,6.95
2023-03-24T02:41:58.634Z,6.86
2023-03-24T02:44:59.304Z,6.82
2023-03-24T02:47:37.414Z,6.75
2023-03-24T02:50:14.273Z,6.70
2023-03-24T02:52:49.445Z,6.68
2023-03-24T02:55:28.507Z,6.66
2023-03-24T02:58:03.981Z,6.62
2023-03-24T03:00:47.863Z,6.56
2023-03-24T03:03:44.175Z,6.57
2023-03-24T03:06:23.572Z,6.57
2023-03-24T03:08:52.490Z,6.59
2023-03-24T03:11:21.303Z,6.61
2023-03-24T03:13:55.003Z,6.61
2023-03-24T03:16:38.743Z,6.62
2023-03-24T03:19:14.693Z,6.62
2023-03-24T03:21:44.492Z,6.65
2023-03-24T03:24:27.581Z,6.66
2023-03-24T03:27:08.541Z,6.65
2023-03-24T03:29:39.920Z,6.60
2023-03-24T03:32:10.234Z,6.54
2023-03-24T03:34:46.805Z,6.53
2023-03-24T03:37:32.305Z,6.51
2023-03-24T03:40:13.450Z,6.45
2023-03-24T03:42:47.460Z,6.43
2023-03-24T03:45:18.569Z,6.48
2023-03-24T03:47:47.777Z,6.52
2023-03-24T03:50:16.802Z,6.58
2023-03-24T03:52:45.133Z,6.62
2023-03-24T03:55:13.271Z,6.71
2023-03-24T03:57:45.378Z,6.77
2023-03-24T04:00:31.347Z,6.91
2023-03-24T04:03:12.368Z,7.23
2023-03-24T04:05:54.767Z,7.42
2023-03-24T04:08:26.293Z,7.47
2023-03-24T04:11:06.892Z,7.55
2023-03-24T04:14:08.114Z,7.62
2023-03-24T04:17:00.790Z,7.75
2023-03-24T04:19:56.199Z,7.97
2023-03-24T04:22:47.674Z,8.26
2023-03-24T04:25:51.210Z,8.57
2023-03-24T04:28:27.479Z,8.92
2023-03-24T04:31:18.794Z,9.09
2023-03-24T04:34:05.671Z,9.30
2023-03-24T04:36:43.590Z,9.44
2023-03-24T04:39:37.072Z,9.52
2023-03-24T04:42:11.422Z,9.67
2023-03-24T04:44:42.054Z,9.78
2023-03-24T04:48:00.001Z,9.89
2023-03-24T04:50:43.733Z,10.01
2023-03-24T04:53:22.466Z,10.15
2023-03-24T04:55:51.793Z,10.25
2023-03-24T04:58:32.873Z,10.34
2023-03-24T05:01:04.758Z,10.45
2023-03-24T05:03:38.596Z,10.52
2023-03-24T05:06:09.377Z,10.63
2023-03-24T05:08:38.912Z,10.74
2023-03-24T05:11:08.084Z,10.80
2023-03-24T05:13:38.535Z,10.94
2023-03-24T05:16:07.392Z,11.03
2023-03-24T05:18:44.252Z,11.16
2023-03-24T05:21:15.456Z,11.26
2023-03-24T05:23:43.732Z,11.52
2023-03-24T05:26:13.396Z,11.69
2023-03-24T05:29:03.037Z,11.77
2023-03-24T05:31:31.906Z,11.91
2023-03-24T05:34:07.727Z,12.04
2023-03-24T05:36:47.036Z,12.20
2023-03-24T05:39:17.919Z,12.32
2023-03-24T05:41:53.804Z,12.45
2023-03-24T05:44:26.951Z,12.65
2023-03-24T05:47:05.310Z,12.89
2023-03-24T05:49:34.153Z,13.06
2023-03-24T05:52:03.244Z,13.26
2023-03-24T05:54:31.504Z,13.56
2023-03-24T05:57:14.425Z,13.88
2023-03-24T05:59:58.583Z,14.05
2023-03-24T06:02:54.100Z,14.31
2023-03-24T06:05:31.780Z,14.55
2023-03-24T06:08:02.572Z,14.81
2023-03-24T06:10:37.281Z,14.92
2023-03-24T06:13:10.772Z,15.17
2023-03-24T06:15:48.916Z,15.33
2023-03-24T06:18:37.990Z,15.89
2023-03-24T06:21:20.197Z,16.22
2023-03-24T06:23:56.704Z,16.35
2023-03-24T06:26:35.518Z,16.89
2023-03-24T06:29:07.621Z,17.14
2023-03-24T06:31:42.227Z,17.65
2023-03-24T06:34:10.810Z,17.96
2023-03-24T06:36:39.042Z,17.89
2023-03-24T06:39:08.675Z,17.78
2023-03-24T06:41:39.088Z,18.04
2023-03-24T06:44:10.366Z,17.99
2023-03-24T06:46:40.976Z,18.16
2023-03-24T06:49:11.403Z,18.40
2023-03-24T06:51:39.692Z,18.51
2023-03-24T06:54:09.406Z,18.66
2023-03-24T06:56:38.515Z,18.28
2023-03-24T06:59:09.457Z,18.57
2023-03-24T07:01:38.999Z,18.31
2023-03-24T07:04:37.386Z,18.21
2023-03-24T07:07:41.423Z,18.39
2023-03-24T07:10:24.596Z,18.13
2023-03-24T07:12:54.236Z,18.86
2023-03-24T07:15:23.626Z,18.66
2023-03-24T07:17:55.546Z,19.11
2023-03-24T07:20:46.892Z,19.56
2023-03-24T07:23:17.799Z,19.66
2023-03-24T07:26:00.275Z,19.84
2023-03-24T07:28:58.530Z,19.55
2023-03-24T07:31:54.887Z,19.53
2023-03-24T07:34:24.038Z,19.70
2023-03-24T07:36:55.069Z,19.67
2023-03-24T07:39:23.141Z,19.53
2023-03-24T07:42:13.092Z,19.47
2023-03-24T07:45:02.289Z,19.93
2023-03-24T07:47:31.993Z,19.37
2023-03-24T07:50:00.817Z,19.99
2023-03-24T07:52:30.865Z,20.26
2023-03-24T07:54:59.906Z,20.10
2023-03-24T07:57:51.632Z,20.59
2023-03-24T08:00:21.776Z,20.84
2023-03-24T08:03:15.860Z,20.11
2023-03-24T08:05:53.658Z,20.74
2023-03-24T08:08:47.972Z,20.33
2023-03-24T08:11:15.963Z,20.06
2023-03-24T08:13:48.191Z,20.48
2023-03-24T08:16:15.918Z,20.79
2023-03-24T08:18:45.473Z,20.74
2023-03-24T08:21:16.035Z,20.74
2023-03-24T08:23:45.092Z,20.63
2023-03-24T08:26:14.444Z,20.36
2023-03-24T08:28:49.882Z,21.05
2023-03-24T08:31:18.286Z,21.40
2023-03-24T08:33:47.526Z,21.22
2023-03-24T08:36:15.864Z,21.15
2023-03-24T08:38:43.806Z,21.04
2023-03-24T08:41:12.327Z,20.77
2023-03-24T08:43:40.982Z,21.12
2023-03-24T08:46:15.880Z,21.28
2023-03-24T08:48:44.525Z,21.31
2023-03-24T08:51:15.166Z,21.68
2023-03-24T08:53:46.157Z,21.97
2023-03-24T08:56:14.616Z,20.81
2023-03-24T08:58:43.930Z,21.40
2023-03-24T09:01:12.948Z,21.42
2023-03-24T09:03:48.236Z,20.87
2023-03-24T09:06:18.265Z,20.75
2023-03-24T09:08:46.373Z,20.45
2023-03-24T09:11:21.313Z,20.21
2023-03-24T09:13:51.426Z,20.51
2023-03-24T09:16:24.648Z,20.55
2023-03-24T09:19:06.059Z,20.29
2023-03-24T09:21:37.841Z,21.16
2023-03-24T09:24:12.202Z,21.13
2023-03-24T09:26:44.039Z,20.80
2023-03-24T09:29:14.553Z,21.30
2023-03-24T09:31:49.014Z,21.26
2023-03-24T09:34:17.716Z,21.12
2023-03-24T09:36:47.655Z,21.42
2023-03-24T09:39:20.206Z,21.29
2023-03-24T09:42:00.175Z,21.64
2023-03-24T09:44:46.131Z,20.86
2023-03-24T09:47:27.445Z,21.07
2023-03-24T09:50:12.357Z,22.04
2023-03-24T09:52:44.424Z,21.87
2023-03-24T09:55:22.361Z,21.81
2023-03-24T09:57:53.394Z,21.80
2023-03-24T10:00:28.990Z,21.43
2023-03-24T10:03:00.671Z,20.86
2023-03-24T10:05:47.796Z,20.97
2023-03-24T10:08:53.509Z,21.04
2023-03-24T10:11:38.930Z,20.70
2023-03-24T10:18:01.446Z,21.14
2023-03-24T10:20:46.950Z,20.95
2023-03-24T10:24:01.317Z,21.20
2023-03-24T10:26:50.554Z,21.70
2023-03-24T10:30:15.188Z,21.83
2023-03-24T10:32:44.233Z,21.29
2023-03-24T10:35:20.233Z,21.71
2023-03-24T10:37:58.007Z,21.82
2023-03-24T10:40:32.985Z,22.14
2023-03-24T10:43:07.010Z,21.37
2023-03-24T10:45:39.535Z,21.14
2023-03-24T10:48:10.703Z,21.21
2023-03-24T10:50:44.544Z,21.31
2023-03-24T10:53:22.858Z,21.41
2023-03-24T10:55:56.381Z,21.79
2023-03-24T10:58:37.977Z,21.64
2023-03-24T11:01:22.711Z,22.25
2023-03-24T11:04:04.054Z,21.66
2023-03-24T11:07:16.502Z,21.48
2023-03-24T11:10:12.533Z,21.26
2023-03-24T11:12:54.626Z,21.59
2023-03-24T11:15:24.230Z,21.72
2023-03-24T11:17:57.101Z,21.50
2023-03-24T11:20:36.620Z,21.39
2023-03-24T11:23:32.275Z,21.79
2023-03-24T11:26:09.648Z,21.74
2023-03-24T11:28:44.505Z,21.75
2023-03-24T11:31:19.469Z,21.94
2023-03-24T11:34:07.556Z,22.13
2023-03-24T11:36:47.865Z,21.89
2023-03-24T11:39:20.004Z,22.13
2023-03-24T11:42:12.628Z,22.41
2023-03-24T11:44:50.021Z,22.12
2023-03-24T11:47:38.967Z,21.94
2023-03-24T11:50:10.214Z,22.35
2023-03-24T11:52:46.375Z,22.18
2023-03-24T11:55:44.851Z,22.75
2023-03-24T11:58:21.993Z,22.88
2023-03-24T12:04:19.445Z,22.72
2023-03-24T12:07:20.556Z,22.49
2023-03-24T12:10:19.818Z,22.66
2023-03-24T12:12:52.968Z,22.43
2023-03-24T12:15:52.055Z,22.66
2023-03-24T12:18:41.929Z,23.31
2023-03-24T12:21:34.743Z,23.42
2023-03-24T12:24:21.123Z,23.33
2023-03-24T12:26:59.594Z,23.61
2023-03-24T12:29:38.985Z,23.73
2023-03-24T12:32:40.283Z,23.83
2023-03-24T12:35:38.969Z,24.00
2023-03-24T12:38:18.540Z,24.12
2023-03-24T12:40:55.796Z,23.41
2023-03-24T12:43:55.914Z,24.31
2023-03-24T12:46:46.732Z,24.75
2023-03-24T12:49:54.627Z,25.01
2023-03-24T12:52:41.138Z,25.04
2023-03-24T12:55:14.920Z,25.63
2023-03-24T12:57:50.256Z,25.52
2023-03-24T13:00:26.164Z,25.09
2023-03-24T13:03:24.084Z,24.84
2023-03-24T13:06:07.307Z,24.44
2023-03-24T13:08:40.188Z,23.77
2023-03-24T13:11:13.159Z,23.92
2023-03-24T13:13:47.578Z,24.47
2023-03-24T13:16:24.935Z,24.70
2023-03-24T13:18:57.745Z,24.71
2023-03-24T13:21:28.160Z,24.18
2023-03-24T13:23:59.122Z,24.40
2023-03-24T13:26:33.944Z,24.94
2023-03-24T13:29:24.103Z,24.46
2023-03-24T13:32:05.670Z,24.51
2023-03-24T13:34:35.987Z,24.81
2023-03-24T13:37:07.538Z,24.46
2023-03-24T13:39:38.083Z,24.60
2023-03-24T13:42:21.253Z,24.38
2023-03-24T13:44:49.079Z,24.14
2023-03-24T13:47:22.934Z,24.07
2023-03-24T13:50:06.849Z,24.43
2023-03-24T13:52:35.792Z,24.56
2023-03-24T13:55:14.632Z,24.78
2023-03-24T13:57:43.289Z,25.02
2023-03-24T14:00:22.669Z,25.36
2023-03-24T14:02:52.895Z,24.66
2023-03-24T14:05:26.523Z,24.55
2023-03-24T14:08:06.400Z,24.66
2023-03-24T14:10:43.709Z,25.05
2023-03-24T14:13:14.352Z,25.22
2023-03-24T14:15:53.406Z,25.34
2023-03-24T14:18:24.761Z,25.07
2023-03-24T14:21:13.729Z,24.28
2023-03-24T14:23:49.490Z,23.98
2023-03-24T14:26:20.179Z,23.47
2023-03-24T14:29:38.076Z,23.36
2023-03-24T14:34:37.850Z,22.94
2023-03-24T14:37:08.038Z,22.49
2023-03-24T14:39:46.504Z,22.37
2023-03-24T14:42:32.527Z,22.20
2023-03-24T14:45:05.061Z,22.41
2023-03-24T14:47:34.632Z,22.14
2023-03-24T14:50:30.380Z,22.19
2023-03-24T14:52:59.231Z,22.30
2023-03-24T14:55:27.228Z,22.16
2023-03-24T14:57:56.697Z,22.00
2023-03-24T15:00:51.729Z,21.92
2023-03-24T15:04:01.576Z,21.83
2023-03-24T15:06:44.201Z,21.65
2023-03-24T15:09:12.116Z,21.45
2023-03-24T15:11:40.696Z,21.68
2023-03-24T15:14:21.742Z,21.67
